createdAt,value
2017-11-07T00:00:14.790Z,14.97
2017-11-07T00:02:42.349Z,12.70
2017-11-07T00:05:09.867Z,9.57
2017-11-07T00:07:37.402Z,8.60
2017-11-07T00:10:04.958Z,7.90
2017-11-07T00:12:32.578Z,7.77
2017-11-07T00:15:00.114Z,7.13
2017-11-07T00:17:27.677Z,5.27
2017-11-07T00:19:55.199Z,6.07
2017-11-07T00:22:34.444Z,5.70
2017-11-07T00:25:01.967Z,6.63
2017-11-07T00:27:29.599Z,5.40
2017-11-07T00:29:57.144Z,5.97
2017-11-07T00:32:25.425Z,5.87
2017-11-07T00:34:53.720Z,5.70
2017-11-07T00:37:21.280Z,5.67
2017-11-07T00:39:48.819Z,6.30
2017-11-07T00:42:16.351Z,6.13
2017-11-07T00:44:43.909Z,6.43
2017-11-07T00:47:11.452Z,5.80
2017-11-07T00:49:38.987Z,5.53
2017-11-07T00:52:06.558Z,6.30
2017-11-07T00:54:34.082Z,6.53
2017-11-07T00:57:01.623Z,11.30
2017-11-07T00:59:29.192Z,20.83
2017-11-07T01:01:57.481Z,21.20
2017-11-07T01:04:25.085Z,17.87
2017-11-07T01:06:52.643Z,13.67
2017-11-07T01:09:20.931Z,11.77
2017-11-07T01:11:48.473Z,11.73
2017-11-07T01:14:16.038Z,11.57
2017-11-07T01:16:43.580Z,10.00
2017-11-07T01:19:11.112Z,9.33
2017-11-07T01:21:38.668Z,8.27
2017-11-07T01:24:06.249Z,8.60
2017-11-07T01:26:33.781Z,7.90
2017-11-07T01:29:01.324Z,8.97
2017-11-07T01:31:28.863Z,8.57
2017-11-07T01:33:56.385Z,7.27
2017-11-07T01:36:23.964Z,7.50
2017-11-07T01:38:51.969Z,7.40
2017-11-07T01:41:20.247Z,7.10
2017-11-07T01:43:47.789Z,7.77
2017-11-07T01:46:15.336Z,8.47
2017-11-07T01:48:42.885Z,7.27
2017-11-07T01:51:10.459Z,9.00
2017-11-07T01:53:38.004Z,8.20
2017-11-07T01:56:05.650Z,9.57
2017-11-07T01:58:33.196Z,7.63
2017-11-07T02:01:00.725Z,9.03
2017-11-07T02:03:28.271Z,9.23
2017-11-07T02:05:55.827Z,9.63
2017-11-07T02:08:23.355Z,10.77
2017-11-07T02:10:50.898Z,11.93
2017-11-07T02:13:18.475Z,11.03
2017-11-07T02:15:46.048Z,10.73
2017-11-07T02:18:14.344Z,12.10
2017-11-07T02:20:41.908Z,12.53
2017-11-07T02:23:09.442Z,12.40
2017-11-07T02:25:36.970Z,12.90
2017-11-07T02:28:04.530Z,12.60
2017-11-07T02:30:32.081Z,12.80
2017-11-07T02:32:59.613Z,14.57
2017-11-07T02:35:27.181Z,12.00
2017-11-07T02:37:54.756Z,9.40
2017-11-07T02:40:22.306Z,10.40
2017-11-07T02:42:50.640Z,10.03
2017-11-07T02:45:18.178Z,9.77
2017-11-07T02:47:45.715Z,10.03
2017-11-07T02:50:13.268Z,9.30
2017-11-07T02:52:40.801Z,8.97
2017-11-07T02:55:08.348Z,8.30
2017-11-07T02:57:35.909Z,8.77
2017-11-07T03:00:03.449Z,9.97
2017-11-07T03:02:30.976Z,10.00
2017-11-07T03:04:58.539Z,9.13
2017-11-07T03:07:26.085Z,9.00
2017-11-07T03:09:53.634Z,8.93
2017-11-07T03:12:21.201Z,8.93
2017-11-07T03:14:49.517Z,8.70
2017-11-07T03:17:17.057Z,8.23
2017-11-07T03:19:44.618Z,12.07
2017-11-07T03:22:12.164Z,9.60
2017-11-07T03:24:39.707Z,9.70
2017-11-07T03:27:07.261Z,9.50
2017-11-07T03:29:37.384Z,9.97
2017-11-07T03:32:07.516Z,10.43
2017-11-07T03:34:37.347Z,9.90
2017-11-07T03:37:07.339Z,11.47
2017-11-07T03:39:34.868Z,15.50
2017-11-07T03:42:02.415Z,16.60
2017-11-07T03:44:29.985Z,15.13
2017-11-07T03:46:59.433Z,12.87
2017-11-07T03:49:29.495Z,11.37
2017-11-07T03:51:57.043Z,11.40
2017-11-07T03:54:24.587Z,11.47
2017-11-07T03:56:52.144Z,11.10
2017-11-07T03:59:19.676Z,10.53
2017-11-07T04:01:47.209Z,11.73
2017-11-07T04:04:14.769Z,11.47
2017-11-07T04:06:42.304Z,10.73
2017-11-07T04:09:09.836Z,10.27
2017-11-07T04:11:37.601Z,10.60
2017-11-07T04:14:05.129Z,11.07
2017-11-07T04:16:32.668Z,10.27
2017-11-07T04:19:00.240Z,10.20
2017-11-07T04:21:27.816Z,10.47
2017-11-07T04:23:55.356Z,9.73
2017-11-07T04:26:26.199Z,11.30
2017-11-07T04:28:53.750Z,10.97
2017-11-07T04:31:21.288Z,11.17
2017-11-07T04:33:48.848Z,10.80
2017-11-07T04:36:16.438Z,10.47
2017-11-07T04:38:43.968Z,10.87
2017-11-07T04:41:11.527Z,9.80
2017-11-07T04:43:39.063Z,10.27
2017-11-07T04:46:06.596Z,11.17
2017-11-07T04:48:34.175Z,10.43
2017-11-07T04:51:02.467Z,11.10
2017-11-07T04:53:30.006Z,11.07
2017-11-07T04:55:57.613Z,11.77
2017-11-07T04:58:25.143Z,11.73
2017-11-07T05:00:52.677Z,11.93
2017-11-07T05:03:20.221Z,11.63
2017-11-07T05:05:47.750Z,11.30
2017-11-07T05:08:15.280Z,11.80
2017-11-07T05:10:42.856Z,11.47
2017-11-07T05:13:10.394Z,12.07
2017-11-07T05:15:37.929Z,11.60
2017-11-07T05:18:05.472Z,11.23
2017-11-07T05:20:32.999Z,10.47
2017-11-07T05:23:00.563Z,11.07
2017-11-07T05:25:28.138Z,12.57
2017-11-07T05:27:55.668Z,11.73
2017-11-07T05:30:23.201Z,10.87
2017-11-07T05:32:50.773Z,12.13
2017-11-07T05:35:18.316Z,11.53
2017-11-07T05:37:45.885Z,11.17
2017-11-07T05:40:13.454Z,10.83
2017-11-07T05:42:40.980Z,11.70
2017-11-07T05:45:09.386Z,10.37
2017-11-07T05:47:36.984Z,12.13
2017-11-07T05:50:05.289Z,10.90
2017-11-07T05:52:32.832Z,11.37
2017-11-07T05:55:00.385Z,10.20
2017-11-07T05:57:27.917Z,11.17
2017-11-07T05:59:55.679Z,9.97
2017-11-07T06:02:23.224Z,10.20
2017-11-07T06:04:50.762Z,10.50
2017-11-07T06:07:18.304Z,11.33
2017-11-07T06:09:45.850Z,9.37
2017-11-07T06:12:13.620Z,10.67
2017-11-07T06:14:41.146Z,10.67
2017-11-07T06:17:08.697Z,10.43
2017-11-07T06:19:36.263Z,10.73
2017-11-07T06:22:03.792Z,11.50
2017-11-07T06:24:31.341Z,11.53
2017-11-07T06:26:58.898Z,11.23
2017-11-07T06:29:26.538Z,11.63
2017-11-07T06:31:54.095Z,10.90
2017-11-07T06:34:22.404Z,10.80
2017-11-07T06:36:49.945Z,10.93
2017-11-07T06:39:17.498Z,10.60
2017-11-07T06:41:45.083Z,10.77
2017-11-07T06:44:12.635Z,11.53
2017-11-07T06:46:40.262Z,11.93
2017-11-07T06:49:07.889Z,11.07
2017-11-07T06:51:35.492Z,11.93
2017-11-07T06:54:03.403Z,10.53
2017-11-07T06:56:30.936Z,9.40
2017-11-07T06:58:58.471Z,11.43
2017-11-07T07:01:26.790Z,9.50
2017-11-07T07:03:54.362Z,11.60
2017-11-07T07:06:22.169Z,12.20
2017-11-07T07:08:49.798Z,9.17
2017-11-07T07:11:17.468Z,12.07
2017-11-07T07:13:45.267Z,12.30
2017-11-07T07:16:13.035Z,11.57
2017-11-07T07:18:40.577Z,11.77
2017-11-07T07:21:08.123Z,10.63
2017-11-07T07:23:35.702Z,10.77
2017-11-07T07:26:03.238Z,12.07
2017-11-07T07:28:30.780Z,11.77
2017-11-07T07:30:58.394Z,12.47
2017-11-07T07:33:25.936Z,11.00
2017-11-07T07:35:53.469Z,11.70
2017-11-07T07:38:21.034Z,12.57
2017-11-07T07:40:48.567Z,10.97
2017-11-07T07:43:16.113Z,11.40
2017-11-07T07:45:44.444Z,12.47
2017-11-07T07:48:12.747Z,11.17
2017-11-07T07:50:40.285Z,10.37
2017-11-07T07:53:07.832Z,11.67
2017-11-07T07:55:35.369Z,12.23
2017-11-07T07:58:02.910Z,11.73
2017-11-07T08:00:30.478Z,12.20
2017-11-07T08:02:58.024Z,13.10
2017-11-07T08:05:25.563Z,12.10
2017-11-07T08:07:53.127Z,13.03
2017-11-07T08:10:20.665Z,11.83
2017-11-07T08:12:50.037Z,12.47
2017-11-07T08:15:18.443Z,13.07
2017-11-07T08:17:45.977Z,12.43
2017-11-07T08:20:13.542Z,13.73
2017-11-07T08:22:41.878Z,13.57
2017-11-07T08:25:09.447Z,13.40
2017-11-07T08:27:37.786Z,12.97
2017-11-07T08:30:05.353Z,12.40
2017-11-07T08:32:33.656Z,12.83
2017-11-07T08:35:01.188Z,13.87
2017-11-07T08:37:28.756Z,13.20
2017-11-07T08:39:56.310Z,13.43
2017-11-07T08:42:23.990Z,11.77
2017-11-07T08:44:51.657Z,14.03
2017-11-07T08:47:19.989Z,13.83
2017-11-07T08:49:47.538Z,13.87
2017-11-07T08:52:15.114Z,14.43
2017-11-07T08:54:42.688Z,13.40
2017-11-07T08:57:10.244Z,13.63
2017-11-07T08:59:37.813Z,12.97
2017-11-07T09:02:05.420Z,12.93
2017-11-07T09:04:33.000Z,12.30
2017-11-07T09:07:00.563Z,13.07
2017-11-07T09:09:28.907Z,12.10
2017-11-07T09:11:56.442Z,12.57
2017-11-07T09:14:24.073Z,12.10
2017-11-07T09:16:51.667Z,13.47
2017-11-07T09:19:20.058Z,12.13
2017-11-07T09:21:47.641Z,13.63
2017-11-07T09:24:15.209Z,13.60
2017-11-07T09:26:42.838Z,11.93
2017-11-07T09:29:10.473Z,13.47
2017-11-07T09:31:38.099Z,12.57
2017-11-07T09:34:05.683Z,12.13
2017-11-07T09:36:33.491Z,12.20
2017-11-07T09:39:01.024Z,11.13
2017-11-07T09:41:28.584Z,11.90
2017-11-07T09:43:57.741Z,11.60
2017-11-07T09:46:28.224Z,12.50
2017-11-07T09:48:55.765Z,11.47
2017-11-07T09:51:23.319Z,11.50
2017-11-07T09:53:50.854Z,11.00
2017-11-07T09:56:18.380Z,11.00
2017-11-07T09:58:45.966Z,11.80
2017-11-07T10:01:14.272Z,12.17
2017-11-07T10:03:41.827Z,12.00
2017-11-07T10:06:09.395Z,11.53
2017-11-07T10:08:36.941Z,11.10
2017-11-07T10:11:04.476Z,11.93
2017-11-07T10:13:32.343Z,11.80
2017-11-07T10:15:59.923Z,11.40
2017-11-07T10:18:27.578Z,12.87
2017-11-07T10:20:55.192Z,12.30
2017-11-07T10:23:23.574Z,11.50
2017-11-07T10:25:51.213Z,10.90
2017-11-07T10:28:18.936Z,10.00
2017-11-07T10:30:46.467Z,11.20
2017-11-07T10:33:14.008Z,11.57
2017-11-07T10:35:41.572Z,10.50
2017-11-07T10:38:09.111Z,9.53
2017-11-07T10:40:36.647Z,10.20
2017-11-07T10:43:04.219Z,10.50
2017-11-07T10:45:31.769Z,11.47
2017-11-07T10:48:00.094Z,10.60
2017-11-07T10:50:27.719Z,10.70
2017-11-07T10:52:55.270Z,11.87
2017-11-07T10:55:22.829Z,10.63
2017-11-07T10:57:50.388Z,10.80
2017-11-07T11:00:17.957Z,10.03
2017-11-07T11:02:45.488Z,9.40
2017-11-07T11:05:13.637Z,9.43
2017-11-07T11:07:41.188Z,10.00
2017-11-07T11:10:08.737Z,9.77
2017-11-07T11:12:36.299Z,8.93
2017-11-07T11:15:04.604Z,9.40
2017-11-07T11:17:32.186Z,9.90
2017-11-07T11:19:59.753Z,9.53
2017-11-07T11:22:28.060Z,10.47
2017-11-07T11:24:56.209Z,9.47
2017-11-07T11:27:23.767Z,9.80
2017-11-07T11:29:51.298Z,9.17
2017-11-07T11:32:19.611Z,9.87
2017-11-07T11:34:47.180Z,9.83
2017-11-07T11:37:15.466Z,8.87
2017-11-07T11:39:43.040Z,9.40
2017-11-07T11:42:10.592Z,7.83
2017-11-07T11:44:38.115Z,9.07
2017-11-07T11:47:05.685Z,8.97
2017-11-07T11:49:33.245Z,9.23
2017-11-07T11:52:00.813Z,9.23
2017-11-07T11:54:29.131Z,9.20
2017-11-07T11:56:56.687Z,9.83
2017-11-07T11:59:24.263Z,9.43
2017-11-07T12:01:51.843Z,8.97
2017-11-07T12:04:19.410Z,8.87
2017-11-07T12:06:46.953Z,8.83
2017-11-07T12:09:14.508Z,7.53
2017-11-07T12:11:42.061Z,8.60
2017-11-07T12:14:09.608Z,8.23
2017-11-07T12:16:37.145Z,8.50
2017-11-07T12:19:04.721Z,8.33
2017-11-07T12:21:32.251Z,8.17
2017-11-07T12:23:59.807Z,9.40
2017-11-07T12:26:28.122Z,8.80
2017-11-07T12:28:55.668Z,9.37
2017-11-07T12:31:23.229Z,9.73
2017-11-07T12:33:50.782Z,9.67
2017-11-07T12:36:18.324Z,8.87
2017-11-07T12:38:45.884Z,9.27
2017-11-07T12:41:13.446Z,8.83
2017-11-07T12:43:40.987Z,8.80
2017-11-07T12:46:09.308Z,9.07
2017-11-07T12:48:36.871Z,9.27
2017-11-07T12:51:16.204Z,10.00
2017-11-07T12:53:44.550Z,10.73
2017-11-07T12:56:12.086Z,10.37
2017-11-07T12:58:39.630Z,10.00
2017-11-07T13:01:07.188Z,9.10
2017-11-07T13:03:34.722Z,9.57
2017-11-07T13:06:02.265Z,9.77
2017-11-07T13:08:29.844Z,11.17
2017-11-07T13:10:58.138Z,8.77
2017-11-07T13:13:25.680Z,10.87
2017-11-07T13:15:54.015Z,11.10
2017-11-07T13:18:21.571Z,10.83
2017-11-07T13:20:49.215Z,13.03
2017-11-07T13:23:16.780Z,10.97
2017-11-07T13:25:44.320Z,9.50
2017-11-07T13:28:11.855Z,10.40
2017-11-07T13:30:39.413Z,11.40
2017-11-07T13:33:06.948Z,10.43
2017-11-07T13:35:34.492Z,10.80
2017-11-07T13:38:02.068Z,10.43
2017-11-07T13:40:29.595Z,11.27
2017-11-07T13:42:57.137Z,11.77
2017-11-07T13:45:24.699Z,10.43
2017-11-07T13:47:53.139Z,9.77
2017-11-07T13:50:20.675Z,11.53
2017-11-07T13:52:48.237Z,10.17
2017-11-07T13:55:15.785Z,9.57
2017-11-07T13:57:43.330Z,10.80
2017-11-07T14:00:10.913Z,10.03
2017-11-07T14:02:38.461Z,10.70
2017-11-07T14:05:06.009Z,13.93
2017-11-07T14:07:33.574Z,12.57
2017-11-07T14:10:01.120Z,10.97
2017-11-07T14:12:29.424Z,10.20
2017-11-07T14:14:56.981Z,10.10
2017-11-07T14:17:24.527Z,9.50
2017-11-07T14:19:52.066Z,9.17
2017-11-07T14:22:19.619Z,10.33
2017-11-07T14:24:47.247Z,10.30
2017-11-07T14:27:14.793Z,12.67
2017-11-07T14:29:42.357Z,11.07
2017-11-07T14:32:09.957Z,9.30
2017-11-07T14:34:37.509Z,9.30
2017-11-07T14:37:05.080Z,10.43
2017-11-07T14:39:32.616Z,9.73
2017-11-07T14:42:00.143Z,9.37
2017-11-07T14:44:27.692Z,9.30
2017-11-07T14:46:55.245Z,9.20
2017-11-07T14:49:22.768Z,11.03
2017-11-07T14:51:50.334Z,9.53
2017-11-07T14:54:17.860Z,9.27
2017-11-07T14:56:45.397Z,8.00
2017-11-07T14:59:12.967Z,10.53
2017-11-07T15:01:40.744Z,11.27
2017-11-07T15:04:08.303Z,9.90
2017-11-07T15:06:35.865Z,10.63
2017-11-07T15:09:03.450Z,9.77
2017-11-07T15:11:31.025Z,9.67
2017-11-07T15:13:58.586Z,10.07
2017-11-07T15:16:26.149Z,9.53
2017-11-07T15:18:53.688Z,7.77
2017-11-07T15:21:22.011Z,10.17
2017-11-07T15:23:49.869Z,10.43
2017-11-07T15:26:21.659Z,10.47
2017-11-07T15:28:53.208Z,10.13
2017-11-07T15:31:20.764Z,10.80
2017-11-07T15:33:48.345Z,10.50
2017-11-07T15:36:15.886Z,11.10
2017-11-07T15:38:43.447Z,10.53
2017-11-07T15:41:10.971Z,9.00
2017-11-07T15:43:38.527Z,12.27
2017-11-07T15:46:06.089Z,14.20
2017-11-07T15:48:33.637Z,11.00
2017-11-07T15:51:01.198Z,9.60
2017-11-07T15:53:28.766Z,10.07
2017-11-07T15:55:56.309Z,9.67
2017-11-07T15:58:23.841Z,11.10
2017-11-07T16:00:51.423Z,10.40
2017-11-07T16:03:18.993Z,10.13
2017-11-07T16:05:46.521Z,9.37
2017-11-07T16:08:14.072Z,10.23
2017-11-07T16:10:41.614Z,9.50
2017-11-07T16:13:09.947Z,9.63
2017-11-07T16:15:37.529Z,11.27
2017-11-07T16:18:05.085Z,10.30
2017-11-07T16:20:32.621Z,10.57
2017-11-07T16:23:00.194Z,10.80
2017-11-07T16:25:28.509Z,10.10
2017-11-07T16:27:56.056Z,10.13
2017-11-07T16:30:23.615Z,10.43
2017-11-07T16:32:51.155Z,10.13
2017-11-07T16:35:18.708Z,11.37
2017-11-07T16:37:46.273Z,11.33
2017-11-07T16:40:14.569Z,10.57
2017-11-07T16:42:42.114Z,10.97
2017-11-07T16:45:09.680Z,9.50
2017-11-07T16:47:37.225Z,11.30
2017-11-07T16:50:04.774Z,9.67
2017-11-07T16:52:32.345Z,11.73
2017-11-07T16:54:59.887Z,11.20
2017-11-07T16:57:27.477Z,11.30
2017-11-07T16:59:56.307Z,9.90
2017-11-07T17:02:24.010Z,9.63
2017-11-07T17:04:51.831Z,10.47
2017-11-07T17:07:19.742Z,10.93
2017-11-07T17:09:47.376Z,10.27
2017-11-07T17:12:15.176Z,10.87
2017-11-07T17:14:43.037Z,10.53
2017-11-07T17:17:21.112Z,9.27
2017-11-07T17:19:49.583Z,10.50
2017-11-07T17:22:17.161Z,11.07
2017-11-07T17:24:48.164Z,10.63
2017-11-07T17:27:16.696Z,10.77
2017-11-07T17:29:45.584Z,11.23
2017-11-07T17:32:13.548Z,9.53
2017-11-07T17:34:48.802Z,11.23
2017-11-07T17:37:16.935Z,10.50
2017-11-07T17:39:44.863Z,10.10
2017-11-07T17:42:12.668Z,14.67
2017-11-07T17:44:41.539Z,13.67
2017-11-07T17:47:09.979Z,16.43
2017-11-07T17:49:38.329Z,14.63
2017-11-07T17:52:06.705Z,13.43
2017-11-07T17:54:34.270Z,15.03
2017-11-07T17:57:06.937Z,14.27
2017-11-07T17:59:34.532Z,12.00
2017-11-07T18:02:02.175Z,15.77
2017-11-07T18:04:29.710Z,11.87
2017-11-07T18:06:57.300Z,11.30
2017-11-07T18:09:25.632Z,10.60
2017-11-07T18:11:53.188Z,11.37
2017-11-07T18:14:20.734Z,10.37
2017-11-07T18:16:48.344Z,11.80
2017-11-07T18:19:15.903Z,10.03
2017-11-07T18:21:44.251Z,11.07
2017-11-07T18:24:11.852Z,10.77
2017-11-07T18:26:40.173Z,10.10
2017-11-07T18:29:07.713Z,10.73
2017-11-07T18:31:35.313Z,12.03
2017-11-07T18:34:02.889Z,13.93
2017-11-07T18:36:30.510Z,13.03
2017-11-07T18:38:58.093Z,11.37
2017-11-07T18:41:25.658Z,12.63
2017-11-07T18:43:53.211Z,11.70
2017-11-07T18:46:21.557Z,11.70
2017-11-07T18:48:49.111Z,11.23
2017-11-07T18:51:16.695Z,11.83
2017-11-07T18:53:44.271Z,11.03
2017-11-07T18:56:11.860Z,10.70
2017-11-07T18:58:39.441Z,12.40
2017-11-07T19:01:07.025Z,10.03
2017-11-07T19:03:34.574Z,10.63
2017-11-07T19:06:02.152Z,11.00
2017-11-07T19:08:30.496Z,11.50
2017-11-07T19:10:58.044Z,13.23
2017-11-07T19:13:25.606Z,15.53
2017-11-07T19:15:53.938Z,13.63
2017-11-07T19:18:21.550Z,13.83
2017-11-07T19:20:49.096Z,13.20
2017-11-07T19:23:25.709Z,12.50
2017-11-07T19:25:53.700Z,13.17
2017-11-07T19:28:31.273Z,14.30
2017-11-07T19:31:04.941Z,12.50
2017-11-07T19:33:36.717Z,12.47
2017-11-07T19:36:08.896Z,12.43
2017-11-07T19:38:41.283Z,12.57
2017-11-07T19:41:15.174Z,11.70
2017-11-07T19:43:47.817Z,11.27
2017-11-07T19:46:19.322Z,12.03
2017-11-07T19:48:52.735Z,12.37
2017-11-07T19:51:30.136Z,11.93
2017-11-07T19:54:03.734Z,12.23
2017-11-07T19:56:40.522Z,12.43
2017-11-07T19:59:14.097Z,12.17
2017-11-07T20:01:41.669Z,11.83
2017-11-07T20:04:15.842Z,12.53
2017-11-07T20:06:46.950Z,13.97
2017-11-07T20:09:21.818Z,13.90
2017-11-07T20:11:57.561Z,12.63
2017-11-07T20:14:27.276Z,14.20
2017-11-07T20:17:04.348Z,14.03
2017-11-07T20:19:37.450Z,13.30
2017-11-07T20:22:10.094Z,11.40
2017-11-07T20:24:44.082Z,12.83
2017-11-07T20:27:20.253Z,13.50
2017-11-07T20:29:51.086Z,13.30
2017-11-07T20:32:18.632Z,12.70
2017-11-07T20:34:47.090Z,14.00
2017-11-07T20:37:14.744Z,13.97
2017-11-07T20:39:42.404Z,14.27
2017-11-07T20:42:09.987Z,14.23
2017-11-07T20:44:37.768Z,12.83
2017-11-07T20:47:05.319Z,14.23
2017-11-07T20:49:32.909Z,14.27
2017-11-07T20:52:00.471Z,13.63
2017-11-07T20:54:28.008Z,16.40
2017-11-07T20:56:55.545Z,14.27
2017-11-07T20:59:23.189Z,16.03
2017-11-07T21:01:50.844Z,13.03
2017-11-07T21:04:18.431Z,15.03
2017-11-07T21:06:46.026Z,13.13
2017-11-07T21:09:13.559Z,13.63
2017-11-07T21:11:41.098Z,13.03
2017-11-07T21:14:08.669Z,16.30
2017-11-07T21:16:36.225Z,14.40
2017-11-07T21:19:06.231Z,14.77
2017-11-07T21:21:33.935Z,13.93
2017-11-07T21:24:02.245Z,14.33
2017-11-07T21:26:30.553Z,14.27
2017-11-07T21:28:58.890Z,14.73
2017-11-07T21:31:26.768Z,15.73
2017-11-07T21:33:54.317Z,14.37
2017-11-07T21:36:21.905Z,14.40
2017-11-07T21:38:49.457Z,14.53
2017-11-07T21:41:20.214Z,14.80
2017-11-07T21:43:47.881Z,15.97
2017-11-07T21:46:15.440Z,14.80
2017-11-07T21:48:43.707Z,15.97
2017-11-07T21:51:11.876Z,12.97
2017-11-07T21:53:40.917Z,15.93
2017-11-07T21:56:10.985Z,15.80
2017-11-07T21:58:44.330Z,17.13
2017-11-07T22:01:29.704Z,20.20
2017-11-07T22:06:55.298Z,16.47
2017-11-07T22:09:22.867Z,17.87
2017-11-07T22:11:51.185Z,18.70
2017-11-07T22:14:41.133Z,19.57
2017-11-07T22:17:10.200Z,17.53
2017-11-07T22:19:39.119Z,15.97
2017-11-07T22:22:06.678Z,15.60
2017-11-07T22:24:34.205Z,15.27
2017-11-07T22:27:03.707Z,16.37
2017-11-07T22:29:31.253Z,17.43
2017-11-07T22:31:58.797Z,16.37
2017-11-07T22:34:26.358Z,13.67
2017-11-07T22:36:53.900Z,16.30
2017-11-07T22:39:21.438Z,16.20
2017-11-07T22:41:49.004Z,14.20
2017-11-07T22:44:17.300Z,16.50
2017-11-07T22:46:44.841Z,18.20
2017-11-07T22:49:12.390Z,15.73
2017-11-07T22:51:39.928Z,16.10
2017-11-07T22:54:07.475Z,15.87
2017-11-07T22:56:35.077Z,15.63
2017-11-07T22:59:02.657Z,17.93
2017-11-07T23:01:30.194Z,15.97
2017-11-07T23:03:57.779Z,17.83
2017-11-07T23:06:25.340Z,17.77
2017-11-07T23:08:52.885Z,16.97
2017-11-07T23:11:20.456Z,16.47
2017-11-07T23:13:48.015Z,18.53
2017-11-07T23:16:15.620Z,17.83
2017-11-07T23:18:43.201Z,17.87
2017-11-07T23:21:11.520Z,16.20
2017-11-07T23:23:39.055Z,16.07
2017-11-07T23:26:06.636Z,16.47
2017-11-07T23:28:34.176Z,16.80
2017-11-07T23:31:01.737Z,18.17
2017-11-07T23:33:29.308Z,19.50
2017-11-07T23:35:56.843Z,19.63
2017-11-07T23:38:24.386Z,17.77
2017-11-07T23:40:51.948Z,19.47
2017-11-07T23:43:19.490Z,19.80
2017-11-07T23:45:47.025Z,21.77
2017-11-07T23:48:14.591Z,20.70
2017-11-07T23:50:48.643Z,18.47
2017-11-07T23:53:16.982Z,19.10
2017-11-07T23:55:44.528Z,19.03
2017-11-07T23:58:12.078Z,21.00
